Time;durP1;ratioP1;P1;durP2;ratioP2;P2;SDS_P1;SDS_P2;PMS_P1;PMS_P2;Temp;Humidity;BMP_temperature;BMP_pressure;BME280_temperature;BME280_humidity;BME280_pressure;Samples;Min_cycle;Max_cycle;Signal;HPM_P1;HPM_P2
2023/12/14 00:02:02;;;;;;;6.87;5.43;;;;;;;;;;5054814;28;20243;-83
2023/12/14 00:04:29;;;;;;;7.23;4.60;;;;;;;;;;5055506;28;20278;-84
2023/12/14 00:06:57;;;;;;;5.33;4.83;;;;;;;;;;5053307;28;20295;-84
2023/12/14 00:09:24;;;;;;;5.80;4.90;;;;;;;;;;5053214;28;20212;-84
2023/12/14 00:11:51;;;;;;;5.07;4.57;;;;;;;;;;5053132;28;20289;-84
2023/12/14 00:14:18;;;;;;;6.27;4.57;;;;;;;;;;5053827;28;20243;-84
2023/12/14 00:16:45;;;;;;;6.50;4.70;;;;;;;;;;5052612;28;20256;-84
2023/12/14 00:19:12;;;;;;;9.47;5.63;;;;;;;;;;5052394;28;20247;-84
2023/12/14 00:21:39;;;;;;;9.70;5.40;;;;;;;;;;5051853;28;20245;-85
2023/12/14 00:24:08;;;;;;;8.43;4.63;;;;;;;;;;5052145;28;20216;-84
2023/12/14 00:26:35;;;;;;;7.07;5.57;;;;;;;;;;5051572;28;20233;-84
2023/12/14 00:29:02;;;;;;;9.40;5.63;;;;;;;;;;5051860;28;20694;-84
2023/12/14 00:31:29;;;;;;;6.37;4.90;;;;;;;;;;5051306;28;20247;-84
2023/12/14 00:33:56;;;;;;;6.73;5.20;;;;;;;;;;5052132;28;20759;-84
2023/12/14 00:36:23;;;;;;;7.40;5.63;;;;;;;;;;5051346;28;20226;-84
2023/12/14 00:38:50;;;;;;;7.97;6.20;;;;;;;;;;5038167;28;20213;-84
2023/12/14 00:41:18;;;;;;;7.30;6.30;;;;;;;;;;5048344;28;20277;-84
2023/12/14 00:43:45;;;;;;;6.93;6.03;;;;;;;;;;5051316;28;20201;-84
2023/12/14 00:46:12;;;;;;;5.73;5.13;;;;;;;;;;5051275;28;20233;-84
2023/12/14 00:48:39;;;;;;;7.50;5.13;;;;;;;;;;5051639;28;20248;-84
2023/12/14 00:51:07;;;;;;;7.87;5.83;;;;;;;;;;5051161;28;20247;-84
2023/12/14 00:53:34;;;;;;;5.50;4.70;;;;;;;;;;5051563;28;20206;-84
2023/12/14 00:56:01;;;;;;;7.10;5.17;;;;;;;;;;5051263;28;20226;-84
2023/12/14 00:58:29;;;;;;;6.17;4.97;;;;;;;;;;5051656;28;20222;-84
2023/12/14 01:00:56;;;;;;;5.40;4.83;;;;;;;;;;5051140;28;20235;-85
2023/12/14 01:03:23;;;;;;;7.03;5.77;;;;;;;;;;5051848;28;20239;-84
2023/12/14 01:05:50;;;;;;;7.67;6.20;;;;;;;;;;5051330;28;20248;-84
2023/12/14 01:08:17;;;;;;;5.40;4.87;;;;;;;;;;5051350;28;20224;-84
2023/12/14 01:10:44;;;;;;;7.63;5.80;;;;;;;;;;5050642;28;20233;-85
2023/12/14 01:13:11;;;;;;;6.60;5.27;;;;;;;;;;5051383;28;20208;-84
2023/12/14 01:15:40;;;;;;;9.50;6.33;;;;;;;;;;5050881;28;20245;-84
2023/12/14 01:18:07;;;;;;;7.00;5.67;;;;;;;;;;5051267;28;20718;-84
2023/12/14 01:20:34;;;;;;;7.80;5.40;;;;;;;;;;5050887;28;20294;-84
2023/12/14 01:23:01;;;;;;;7.23;5.47;;;;;;;;;;5051408;28;20702;-84
2023/12/14 01:25:28;;;;;;;6.10;4.83;;;;;;;;;;5051035;28;20248;-85
2023/12/14 01:27:55;;;;;;;7.10;5.20;;;;;;;;;;5051422;28;20587;-84
2023/12/14 01:30:22;;;;;;;6.60;5.17;;;;;;;;;;5051008;28;20263;-84
2023/12/14 01:32:50;;;;;;;6.43;4.67;;;;;;;;;;5050995;28;20689;-84
2023/12/14 01:35:17;;;;;;;6.83;5.27;;;;;;;;;;5050589;28;20202;-85
2023/12/14 01:37:44;;;;;;;6.80;4.33;;;;;;;;;;5051170;28;20218;-84
2023/12/14 01:40:11;;;;;;;8.03;5.40;;;;;;;;;;5051066;28;20209;-85
2023/12/14 01:42:38;;;;;;;6.03;4.83;;;;;;;;;;5051352;28;20207;-85
2023/12/14 01:45:06;;;;;;;6.47;5.00;;;;;;;;;;5050069;28;20232;-84
2023/12/14 01:47:33;;;;;;;5.87;5.03;;;;;;;;;;5050831;28;20233;-85
2023/12/14 01:50:02;;;;;;;5.37;4.67;;;;;;;;;;5050968;28;20215;-84
2023/12/14 01:52:29;;;;;;;7.83;5.70;;;;;;;;;;5050612;28;20220;-84
2023/12/14 01:54:58;;;;;;;6.10;5.43;;;;;;;;;;5053960;28;20204;-84
2023/12/14 01:57:25;;;;;;;7.37;5.50;;;;;;;;;;5054133;28;20751;-85
2023/12/14 01:59:52;;;;;;;7.20;5.40;;;;;;;;;;5054432;28;20201;-84
2023/12/14 02:02:19;;;;;;;11.63;6.30;;;;;;;;;;5053351;28;20664;-84
2023/12/14 02:04:47;;;;;;;11.20;6.40;;;;;;;;;;5054339;28;20209;-84
2023/12/14 02:07:15;;;;;;;6.73;5.73;;;;;;;;;;5051474;28;20232;-84
2023/12/14 02:09:42;;;;;;;8.07;5.97;;;;;;;;;;5059935;28;20212;-84
2023/12/14 02:12:09;;;;;;;7.13;5.63;;;;;;;;;;5069671;28;20624;-84
2023/12/14 02:14:36;;;;;;;9.77;5.83;;;;;;;;;;5054190;28;20221;-85
2023/12/14 02:17:03;;;;;;;9.40;6.30;;;;;;;;;;5053651;28;20657;-84
2023/12/14 02:19:30;;;;;;;10.33;6.80;;;;;;;;;;5054414;28;20203;-84
2023/12/14 02:21:57;;;;;;;11.43;6.40;;;;;;;;;;5053833;28;20239;-84
2023/12/14 02:24:25;;;;;;;8.10;6.20;;;;;;;;;;5054305;28;20203;-85
2023/12/14 02:26:52;;;;;;;8.63;6.40;;;;;;;;;;5053654;28;20656;-84
2023/12/14 02:29:19;;;;;;;7.33;6.37;;;;;;;;;;5054271;28;20202;-84
2023/12/14 02:31:48;;;;;;;6.70;5.50;;;;;;;;;;5053363;28;20240;-84
2023/12/14 02:34:15;;;;;;;11.87;6.47;;;;;;;;;;5054296;28;20204;-84
2023/12/14 02:36:42;;;;;;;8.37;6.23;;;;;;;;;;5053311;28;20241;-84
2023/12/14 02:39:09;;;;;;;9.60;6.20;;;;;;;;;;5053838;28;20661;-84
2023/12/14 02:41:38;;;;;;;10.37;6.00;;;;;;;;;;5053188;28;20241;-84
2023/12/14 02:44:05;;;;;;;6.17;5.57;;;;;;;;;;5053722;28;20252;-84
2023/12/14 02:46:32;;;;;;;8.10;5.47;;;;;;;;;;5053143;28;20230;-84
2023/12/14 02:48:59;;;;;;;8.87;5.63;;;;;;;;;;5054061;28;20206;-84
2023/12/14 02:51:29;;;;;;;10.73;6.37;;;;;;;;;;5053221;28;20239;-84
2023/12/14 02:53:57;;;;;;;7.30;5.63;;;;;;;;;;5053906;28;20568;-84
2023/12/14 02:56:24;;;;;;;6.20;5.47;;;;;;;;;;5053502;28;20279;-84
2023/12/14 02:58:53;;;;;;;7.30;5.40;;;;;;;;;;5053416;28;20324;-84
2023/12/14 03:01:21;;;;;;;7.03;5.57;;;;;;;;;;5053023;28;20235;-85
2023/12/14 03:03:48;;;;;;;10.13;6.10;;;;;;;;;;5053650;28;20206;-84
2023/12/14 03:06:15;;;;;;;7.63;6.07;;;;;;;;;;5052199;28;20376;-83
2023/12/14 03:08:42;;;;;;;6.97;6.07;;;;;;;;;;5053636;28;20313;-83
2023/12/14 03:11:09;;;;;;;6.87;5.80;;;;;;;;;;5052810;28;20273;-83
2023/12/14 03:13:36;;;;;;;7.63;5.90;;;;;;;;;;5053367;28;20624;-83
2023/12/14 03:16:05;;;;;;;7.10;5.87;;;;;;;;;;5052695;28;20236;-84
2023/12/14 03:18:32;;;;;;;6.67;5.93;;;;;;;;;;5048583;28;20734;-84
2023/12/14 03:20:59;;;;;;;8.47;5.87;;;;;;;;;;5052797;28;20265;-84
2023/12/14 03:23:26;;;;;;;7.63;5.67;;;;;;;;;;5053355;28;20261;-84
2023/12/14 03:25:53;;;;;;;7.93;6.17;;;;;;;;;;5052557;28;20231;-84
2023/12/14 03:28:20;;;;;;;8.43;6.97;;;;;;;;;;5053018;28;20768;-84
2023/12/14 03:30:48;;;;;;;7.97;6.70;;;;;;;;;;5052673;28;20279;-84
2023/12/14 03:33:16;;;;;;;10.17;6.80;;;;;;;;;;5052963;28;20201;-84
2023/12/14 03:35:44;;;;;;;8.03;6.30;;;;;;;;;;5052628;28;20643;-84
2023/12/14 03:38:11;;;;;;;8.37;6.70;;;;;;;;;;5033061;28;20231;-84
2023/12/14 03:40:38;;;;;;;6.77;6.07;;;;;;;;;;5032468;28;20247;-84
2023/12/14 03:43:05;;;;;;;9.03;6.30;;;;;;;;;;5042079;28;20209;-84
2023/12/14 03:45:32;;;;;;;8.63;6.30;;;;;;;;;;5052044;28;20265;-84
2023/12/14 03:47:59;;;;;;;7.97;6.27;;;;;;;;;;5052431;28;20244;-84
2023/12/14 03:50:29;;;;;;;8.10;5.77;;;;;;;;;;5052037;28;20233;-83
2023/12/14 03:52:56;;;;;;;6.87;5.67;;;;;;;;;;5052449;28;20632;-83
2023/12/14 03:55:23;;;;;;;9.17;6.17;;;;;;;;;;5052230;28;20238;-83
2023/12/14 03:57:50;;;;;;;10.97;6.20;;;;;;;;;;5052458;28;20230;-83
2023/12/14 04:00:17;;;;;;;7.07;5.50;;;;;;;;;;5052209;28;20269;-84
2023/12/14 04:02:44;;;;;;;6.70;6.10;;;;;;;;;;5052307;28;20611;-83
2023/12/14 04:05:11;;;;;;;11.23;6.97;;;;;;;;;;5052143;28;20206;-84
2023/12/14 04:07:41;;;;;;;11.77;7.43;;;;;;;;;;5052355;28;20234;-84
2023/12/14 04:10:08;;;;;;;8.50;7.07;;;;;;;;;;5051759;28;20230;-84
2023/12/14 04:12:35;;;;;;;9.80;6.87;;;;;;;;;;5051943;28;20206;-85
2023/12/14 04:15:03;;;;;;;11.23;8.20;;;;;;;;;;5052356;28;20204;-84
2023/12/14 04:17:30;;;;;;;13.40;7.37;;;;;;;;;;5052584;28;20243;-84
2023/12/14 04:19:57;;;;;;;9.57;7.87;;;;;;;;;;5052203;28;20576;-84
2023/12/14 04:22:24;;;;;;;10.90;7.50;;;;;;;;;;5051493;28;20288;-84
2023/12/14 04:24:52;;;;;;;13.80;6.90;;;;;;;;;;5052250;28;20207;-84
2023/12/14 04:27:20;;;;;;;15.83;8.03;;;;;;;;;;5051305;28;20233;-84
2023/12/14 04:29:47;;;;;;;11.47;7.10;;;;;;;;;;5051815;28;20698;-84
2023/12/14 04:32:14;;;;;;;10.90;7.30;;;;;;;;;;5051209;28;20235;-84
2023/12/14 04:34:41;;;;;;;9.77;8.13;;;;;;;;;;5051856;28;20686;-84
2023/12/14 04:37:08;;;;;;;9.97;7.50;;;;;;;;;;5051430;28;20248;-84
2023/12/14 04:39:35;;;;;;;11.63;6.93;;;;;;;;;;5052472;28;20297;-83
2023/12/14 04:42:04;;;;;;;9.73;7.03;;;;;;;;;;5054827;28;20236;-83
2023/12/14 04:44:31;;;;;;;16.17;7.90;;;;;;;;;;5056358;28;20216;-83
2023/12/14 04:46:58;;;;;;;11.07;7.50;;;;;;;;;;5053477;28;20235;-84
2023/12/14 04:49:26;;;;;;;11.43;7.30;;;;;;;;;;5053618;28;20234;-83
2023/12/14 04:51:53;;;;;;;11.93;8.07;;;;;;;;;;5054989;28;20255;-83
2023/12/14 04:54:20;;;;;;;12.57;8.10;;;;;;;;;;5049381;28;20201;-83
2023/12/14 04:56:47;;;;;;;12.50;7.30;;;;;;;;;;5054582;28;20230;-84
2023/12/14 04:59:15;;;;;;;12.20;8.63;;;;;;;;;;5051587;28;20205;-84
2023/12/14 05:01:42;;;;;;;9.50;7.50;;;;;;;;;;5050658;28;20639;-84
2023/12/14 05:04:09;;;;;;;11.97;6.97;;;;;;;;;;5051761;28;20211;-84
2023/12/14 05:06:36;;;;;;;10.97;6.87;;;;;;;;;;5050893;28;20267;-84
2023/12/14 05:09:04;;;;;;;13.93;7.17;;;;;;;;;;5051588;28;20628;-84
2023/12/14 05:11:31;;;;;;;10.77;6.57;;;;;;;;;;5050741;28;20261;-84
2023/12/14 05:13:58;;;;;;;13.27;6.87;;;;;;;;;;5051215;28;20679;-85
2023/12/14 05:16:27;;;;;;;11.57;7.47;;;;;;;;;;5050835;28;20220;-84
2023/12/14 05:18:54;;;;;;;18.90;7.43;;;;;;;;;;5051651;28;20308;-84
2023/12/14 05:21:21;;;;;;;13.50;7.20;;;;;;;;;;5051364;28;20223;-84
2023/12/14 05:23:48;;;;;;;15.93;8.57;;;;;;;;;;5052184;28;20214;-84
2023/12/14 05:26:15;;;;;;;14.63;7.30;;;;;;;;;;5050736;28;20263;-84
2023/12/14 05:28:42;;;;;;;14.00;9.03;;;;;;;;;;5052300;28;20731;-84
2023/12/14 05:31:09;;;;;;;17.70;9.10;;;;;;;;;;5054604;28;20264;-84
2023/12/14 05:33:39;;;;;;;15.27;7.87;;;;;;;;;;5055633;28;20263;-84
2023/12/14 05:36:10;;;;;;;12.93;7.30;;;;;;;;;;5054916;28;20232;-84
2023/12/14 05:38:37;;;;;;;14.30;7.97;;;;;;;;;;5055304;28;20232;-84
2023/12/14 05:41:04;;;;;;;14.17;9.03;;;;;;;;;;5054478;28;20259;-84
2023/12/14 05:43:31;;;;;;;12.17;8.13;;;;;;;;;;5055175;28;20673;-84
2023/12/14 05:45:58;;;;;;;11.60;7.97;;;;;;;;;;5054467;28;20261;-84
2023/12/14 05:48:26;;;;;;;11.07;7.90;;;;;;;;;;5055414;28;20233;-85
2023/12/14 05:50:55;;;;;;;13.73;8.90;;;;;;;;;;5054139;28;20237;-84
2023/12/14 05:53:22;;;;;;;16.00;9.77;;;;;;;;;;5054617;28;20673;-84
2023/12/14 05:55:49;;;;;;;15.70;9.53;;;;;;;;;;5054344;28;20259;-84
2023/12/14 05:58:16;;;;;;;15.73;9.20;;;;;;;;;;5054631;28;20216;-83
2023/12/14 06:00:43;;;;;;;16.03;8.70;;;;;;;;;;5054236;28;20236;-83
2023/12/14 06:03:10;;;;;;;18.03;9.63;;;;;;;;;;5054504;28;20671;-83
2023/12/14 06:05:37;;;;;;;15.50;9.57;;;;;;;;;;5053982;28;20244;-83
2023/12/14 06:08:06;;;;;;;19.40;10.17;;;;;;;;;;5054549;28;20234;-83
2023/12/14 06:10:33;;;;;;;17.80;10.07;;;;;;;;;;5053829;28;20241;-82
2023/12/14 06:13:00;;;;;;;16.13;9.97;;;;;;;;;;5054444;28;20205;-83
2023/12/14 06:15:27;;;;;;;16.80;10.53;;;;;;;;;;5054032;28;20286;-81
2023/12/14 06:17:54;;;;;;;15.37;11.10;;;;;;;;;;5054176;28;20304;-82
2023/12/14 06:20:21;;;;;;;16.77;10.63;;;;;;;;;;5053828;28;20557;-82
2023/12/14 06:22:48;;;;;;;10.13;8.53;;;;;;;;;;5053893;28;20311;-82
2023/12/14 06:25:16;;;;;;;11.40;7.53;;;;;;;;;;5053889;28;20609;-82
2023/12/14 06:27:44;;;;;;;15.13;7.90;;;;;;;;;;5054034;28;20237;-82
2023/12/14 06:30:12;;;;;;;18.20;8.83;;;;;;;;;;5053745;28;20209;-82
2023/12/14 06:32:39;;;;;;;12.60;8.57;;;;;;;;;;5053773;28;20210;-82
2023/12/14 06:35:06;;;;;;;10.33;7.93;;;;;;;;;;5053596;28;20202;-82
2023/12/14 06:37:33;;;;;;;16.33;8.97;;;;;;;;;;5053676;28;20221;-82
2023/12/14 06:40:00;;;;;;;14.60;8.53;;;;;;;;;;5052780;28;20203;-82
2023/12/14 06:42:30;;;;;;;12.17;9.17;;;;;;;;;;5053363;28;20228;-82
2023/12/14 06:44:57;;;;;;;12.27;8.67;;;;;;;;;;5053731;28;20212;-81
2023/12/14 06:47:24;;;;;;;19.83;10.73;;;;;;;;;;5053053;28;20730;-80
2023/12/14 06:49:51;;;;;;;25.30;10.70;;;;;;;;;;5053596;28;20213;-80
2023/12/14 06:52:18;;;;;;;18.73;10.90;;;;;;;;;;5053047;28;20264;-80
2023/12/14 06:54:45;;;;;;;16.43;10.60;;;;;;;;;;5053556;28;20939;-80
2023/12/14 06:57:13;;;;;;;15.40;10.40;;;;;;;;;;5053069;28;20237;-81
2023/12/14 06:59:41;;;;;;;15.67;10.33;;;;;;;;;;5053064;28;20672;-81
2023/12/14 07:02:09;;;;;;;18.63;10.10;;;;;;;;;;5052824;28;20916;-81
2023/12/14 07:04:36;;;;;;;22.57;10.27;;;;;;;;;;5053308;28;20209;-81
2023/12/14 07:07:03;;;;;;;16.53;10.13;;;;;;;;;;5052852;28;20820;-81
2023/12/14 07:09:30;;;;;;;20.27;9.43;;;;;;;;;;5053329;28;20231;-82
2023/12/14 07:11:57;;;;;;;13.63;8.93;;;;;;;;;;5052626;28;20751;-81
2023/12/14 07:14:24;;;;;;;12.90;8.97;;;;;;;;;;5053146;28;20322;-81
2023/12/14 07:16:53;;;;;;;16.83;9.37;;;;;;;;;;5045845;28;20244;-81
2023/12/14 07:19:20;;;;;;;18.43;10.30;;;;;;;;;;5052682;28;20235;-81
2023/12/14 07:21:47;;;;;;;12.73;7.97;;;;;;;;;;5052013;28;20229;-81
2023/12/14 07:24:14;;;;;;;14.23;8.07;;;;;;;;;;5052934;28;20214;-81
2023/12/14 07:26:41;;;;;;;16.77;8.50;;;;;;;;;;5052069;28;20295;-81
2023/12/14 07:29:08;;;;;;;9.93;7.63;;;;;;;;;;5052762;28;20204;-81
2023/12/14 07:31:35;;;;;;;18.20;8.37;;;;;;;;;;5051871;28;20233;-81
2023/12/14 07:34:04;;;;;;;11.47;6.80;;;;;;;;;;5052431;28;20202;-81
2023/12/14 07:36:31;;;;;;;17.20;8.63;;;;;;;;;;5051940;28;20242;-81
2023/12/14 07:39:00;;;;;;;14.30;8.83;;;;;;;;;;5044267;28;20807;-81
2023/12/14 07:41:29;;;;;;;19.90;8.63;;;;;;;;;;5055245;28;20228;-81
2023/12/14 07:43:56;;;;;;;13.57;8.40;;;;;;;;;;5051401;28;20237;-81
2023/12/14 07:46:23;;;;;;;18.00;9.87;;;;;;;;;;5050804;28;20241;-81
2023/12/14 07:48:50;;;;;;;20.47;9.83;;;;;;;;;;5051093;28;20698;-81
2023/12/14 07:51:19;;;;;;;20.97;10.97;;;;;;;;;;5050014;28;20910;-81
2023/12/14 07:53:46;;;;;;;17.50;10.07;;;;;;;;;;5050589;28;20210;-82
2023/12/14 07:56:13;;;;;;;22.30;11.03;;;;;;;;;;5050745;28;20253;-82
2023/12/14 07:58:40;;;;;;;14.30;9.70;;;;;;;;;;5051786;28;20309;-81
2023/12/14 08:01:08;;;;;;;25.40;10.30;;;;;;;;;;5051241;28;20373;-82
2023/12/14 08:03:35;;;;;;;18.33;9.47;;;;;;;;;;5051919;28;20213;-82
2023/12/14 08:06:02;;;;;;;21.43;11.40;;;;;;;;;;5051442;28;20716;-82
2023/12/14 08:08:30;;;;;;;20.77;9.33;;;;;;;;;;5052005;28;20298;-82
2023/12/14 08:10:57;;;;;;;23.97;10.80;;;;;;;;;;5051277;28;20228;-82
2023/12/14 08:13:24;;;;;;;23.23;11.77;;;;;;;;;;5051682;28;20277;-82
2023/12/14 08:15:51;;;;;;;28.13;10.73;;;;;;;;;;5051287;28;20307;-81
2023/12/14 08:18:18;;;;;;;22.07;11.27;;;;;;;;;;5051649;28;20312;-81
2023/12/14 08:20:45;;;;;;;16.80;11.67;;;;;;;;;;5051035;28;20241;-81
2023/12/14 08:23:12;;;;;;;18.33;10.00;;;;;;;;;;5051816;28;20206;-81
2023/12/14 08:25:40;;;;;;;21.03;11.10;;;;;;;;;;5051124;28;20239;-81
2023/12/14 08:28:07;;;;;;;22.23;11.03;;;;;;;;;;5051521;28;20237;-82
2023/12/14 08:30:35;;;;;;;25.67;11.80;;;;;;;;;;5051163;28;20244;-81
2023/12/14 08:33:02;;;;;;;23.70;13.13;;;;;;;;;;5051653;28;20213;-81
2023/12/14 08:35:29;;;;;;;22.27;13.33;;;;;;;;;;5050963;28;20229;-81
2023/12/14 08:37:57;;;;;;;24.57;12.17;;;;;;;;;;5051483;28;20746;-81
2023/12/14 08:40:24;;;;;;;22.07;11.17;;;;;;;;;;5050987;28;20234;-81
2023/12/14 08:42:52;;;;;;;18.00;9.97;;;;;;;;;;5051123;28;20255;-81
2023/12/14 08:45:19;;;;;;;15.20;9.27;;;;;;;;;;5051202;28;20241;-81
2023/12/14 08:47:46;;;;;;;11.97;7.80;;;;;;;;;;5051177;28;20568;-81
2023/12/14 08:50:13;;;;;;;17.77;9.63;;;;;;;;;;5051033;28;20248;-81
2023/12/14 08:52:40;;;;;;;21.27;9.37;;;;;;;;;;5051289;28;20623;-81
2023/12/14 08:55:07;;;;;;;20.07;9.13;;;;;;;;;;5050827;28;20205;-81
2023/12/14 08:57:34;;;;;;;21.87;8.83;;;;;;;;;;5050970;28;20233;-81
2023/12/14 09:00:04;;;;;;;23.70;10.07;;;;;;;;;;5051394;28;20206;-82
2023/12/14 09:02:31;;;;;;;21.20;10.10;;;;;;;;;;5050498;28;20230;-81
2023/12/14 09:04:58;;;;;;;18.90;9.47;;;;;;;;;;5054371;28;20218;-81
2023/12/14 09:07:25;;;;;;;26.60;10.63;;;;;;;;;;5054774;28;20284;-81
2023/12/14 09:09:52;;;;;;;27.00;10.80;;;;;;;;;;5054963;28;20561;-81
2023/12/14 09:12:19;;;;;;;25.07;10.30;;;;;;;;;;5053796;28;20232;-81
2023/12/14 09:14:47;;;;;;;30.17;12.67;;;;;;;;;;5055230;28;20293;-82
2023/12/14 09:17:15;;;;;;;23.80;11.90;;;;;;;;;;5054519;28;20575;-81
2023/12/14 09:19:42;;;;;;;22.10;11.57;;;;;;;;;;5055002;28;20695;-80
2023/12/14 09:22:09;;;;;;;36.20;14.73;;;;;;;;;;5054879;28;20229;-81
2023/12/14 09:24:36;;;;;;;37.63;14.20;;;;;;;;;;5055429;28;20206;-81
2023/12/14 09:27:03;;;;;;;38.10;14.47;;;;;;;;;;5054772;28;20657;-81
2023/12/14 09:29:30;;;;;;;39.33;14.63;;;;;;;;;;5055170;28;20669;-81
2023/12/14 09:31:57;;;;;;;34.33;13.87;;;;;;;;;;5055361;28;20230;-79
2023/12/14 09:34:25;;;;;;;39.77;15.60;;;;;;;;;;5056842;28;20259;-81
2023/12/14 09:36:52;;;;;;;46.03;17.73;;;;;;;;;;5056115;28;20279;-80
2023/12/14 09:39:21;;;;;;;42.77;15.50;;;;;;;;;;5055267;28;20206;-81
2023/12/14 09:41:48;;;;;;;45.60;17.00;;;;;;;;;;5054068;28;20229;-81
2023/12/14 09:44:15;;;;;;;45.57;15.07;;;;;;;;;;5054677;28;20669;-82
2023/12/14 09:46:48;;;;;;;43.43;15.23;;;;;;;;;;5054041;28;20228;-82
2023/12/14 09:49:16;;;;;;;44.67;16.60;;;;;;;;;;5054818;28;20333;-82
2023/12/14 09:51:44;;;;;;;43.53;17.67;;;;;;;;;;5054546;28;20639;-82
2023/12/14 09:54:11;;;;;;;41.43;17.23;;;;;;;;;;5055541;28;20561;-82
2023/12/14 09:56:46;;;;;;;39.00;16.17;;;;;;;;;;5054537;28;20229;-82
2023/12/14 09:59:13;;;;;;;56.27;16.47;;;;;;;;;;5055380;28;20190;-82
2023/12/14 10:01:40;;;;;;;46.90;16.40;;;;;;;;;;5054563;28;20246;-82
2023/12/14 10:04:11;;;;;;;59.93;18.17;;;;;;;;;;5054969;28;20229;-82
2023/12/14 10:06:38;;;;;;;45.97;15.30;;;;;;;;;;5053900;28;20237;-82
2023/12/14 10:09:09;;;;;;;46.90;16.10;;;;;;;;;;5054234;28;20230;-82
2023/12/14 10:11:36;;;;;;;39.57;14.57;;;;;;;;;;5053747;28;20730;-82
2023/12/14 10:14:04;;;;;;;25.63;10.87;;;;;;;;;;5054371;28;20206;-83
2023/12/14 10:16:31;;;;;;;36.37;13.90;;;;;;;;;;5053805;28;20233;-83
2023/12/14 10:18:58;;;;;;;38.80;15.07;;;;;;;;;;5054194;28;20560;-83
2023/12/14 10:21:26;;;;;;;39.57;15.03;;;;;;;;;;5053600;28;20225;-82
2023/12/14 10:23:53;;;;;;;41.57;14.57;;;;;;;;;;5051426;28;20210;-83
2023/12/14 10:26:23;;;;;;;42.03;15.73;;;;;;;;;;5059358;28;20221;-83
2023/12/14 10:28:51;;;;;;;43.10;14.53;;;;;;;;;;5055204;28;20310;-83
2023/12/14 10:31:19;;;;;;;52.17;15.87;;;;;;;;;;5053197;28;20236;-82
2023/12/14 10:33:46;;;;;;;38.23;14.73;;;;;;;;;;5053712;28;20206;-82
2023/12/14 10:36:14;;;;;;;42.57;13.13;;;;;;;;;;5052900;28;20253;-83
2023/12/14 10:38:42;;;;;;;34.07;12.90;;;;;;;;;;5053388;28;20321;-82
2023/12/14 10:41:09;;;;;;;42.87;12.73;;;;;;;;;;5052734;28;20226;-82
2023/12/14 10:43:38;;;;;;;29.50;11.20;;;;;;;;;;5053469;28;20256;-82
2023/12/14 10:46:07;;;;;;;32.50;11.70;;;;;;;;;;5052696;28;20263;-82
2023/12/14 10:48:36;;;;;;;26.93;10.87;;;;;;;;;;5052945;28;20233;-82
2023/12/14 10:51:05;;;;;;;20.90;8.27;;;;;;;;;;5044404;28;20934;-82
2023/12/14 10:53:32;;;;;;;24.20;10.07;;;;;;;;;;5046331;28;20237;-83
2023/12/14 10:56:01;;;;;;;22.37;8.83;;;;;;;;;;5050783;28;20269;-83
2023/12/14 10:58:28;;;;;;;22.60;9.80;;;;;;;;;;5052247;28;20222;-82
2023/12/14 11:01:03;;;;;;;14.03;7.60;;;;;;;;;;5051539;28;20254;-83
2023/12/14 11:03:35;;;;;;;17.43;8.10;;;;;;;;;;5051996;28;20202;-83
2023/12/14 11:06:04;;;;;;;15.50;7.53;;;;;;;;;;5050879;28;20312;-82
2023/12/14 11:08:31;;;;;;;18.00;8.50;;;;;;;;;;5051601;28;20576;-81
2023/12/14 11:11:10;;;;;;;14.63;6.80;;;;;;;;;;5043197;28;20231;-82
2023/12/14 11:13:38;;;;;;;16.70;7.97;;;;;;;;;;5048980;28;20213;-81
2023/12/14 11:16:07;;;;;;;15.10;6.73;;;;;;;;;;5051398;28;20715;-82
2023/12/14 11:18:34;;;;;;;12.67;5.93;;;;;;;;;;5054527;28;20608;-81
2023/12/14 11:21:02;;;;;;;11.60;6.57;;;;;;;;;;5051583;28;20475;-81
2023/12/14 11:23:33;;;;;;;19.93;7.40;;;;;;;;;;5052015;28;20232;-81
2023/12/14 11:26:03;;;;;;;13.23;6.03;;;;;;;;;;5050464;28;20242;-81
2023/12/14 11:28:30;;;;;;;15.07;6.33;;;;;;;;;;5051807;28;20226;-81
2023/12/14 11:30:57;;;;;;;14.63;6.60;;;;;;;;;;5051472;28;20236;-82
2023/12/14 11:33:27;;;;;;;11.00;6.23;;;;;;;;;;5052164;28;20260;-82
2023/12/14 11:35:54;;;;;;;9.07;5.90;;;;;;;;;;5051107;28;20233;-82
2023/12/14 11:38:23;;;;;;;12.37;6.20;;;;;;;;;;5048379;28;20218;-82
2023/12/14 11:40:50;;;;;;;10.17;5.63;;;;;;;;;;5051527;28;20264;-82
2023/12/14 11:43:20;;;;;;;10.67;5.67;;;;;;;;;;5057054;28;20206;-82
2023/12/14 11:45:47;;;;;;;7.10;5.30;;;;;;;;;;5053115;28;20295;-82
2023/12/14 11:48:14;;;;;;;7.57;5.47;;;;;;;;;;5051318;28;20229;-82
2023/12/14 11:50:43;;;;;;;7.93;5.73;;;;;;;;;;5051190;28;20295;-82
2023/12/14 11:53:10;;;;;;;9.43;5.70;;;;;;;;;;5050820;28;20206;-81
2023/12/14 11:55:38;;;;;;;7.93;5.73;;;;;;;;;;5051467;28;20317;-82
2023/12/14 11:58:06;;;;;;;9.73;5.70;;;;;;;;;;5051496;28;20674;-82
2023/12/14 12:00:35;;;;;;;10.03;5.67;;;;;;;;;;5051132;28;20237;-82
2023/12/14 12:03:09;;;;;;;7.67;4.97;;;;;;;;;;5051215;28;20209;-82
2023/12/14 12:05:39;;;;;;;10.40;5.47;;;;;;;;;;5051134;28;20229;-82
2023/12/14 12:08:08;;;;;;;9.30;5.60;;;;;;;;;;5051004;28;20570;-82
2023/12/14 12:10:35;;;;;;;7.23;5.40;;;;;;;;;;5051169;28;20230;-82
2023/12/14 12:13:04;;;;;;;10.90;5.43;;;;;;;;;;5050654;28;20222;-82
2023/12/14 12:15:32;;;;;;;8.57;6.10;;;;;;;;;;5050434;28;20268;-82
2023/12/14 12:17:59;;;;;;;9.37;5.87;;;;;;;;;;5050869;28;20317;-82
2023/12/14 12:20:26;;;;;;;6.80;4.97;;;;;;;;;;5050958;28;20238;-82
2023/12/14 12:22:54;;;;;;;7.07;5.03;;;;;;;;;;5050518;28;20213;-82
2023/12/14 12:25:23;;;;;;;10.27;6.00;;;;;;;;;;5050379;28;20300;-82
2023/12/14 12:27:50;;;;;;;9.67;4.90;;;;;;;;;;5050812;28;20324;-82
2023/12/14 12:30:17;;;;;;;7.07;4.50;;;;;;;;;;5050810;28;20563;-82
2023/12/14 12:32:44;;;;;;;10.60;5.13;;;;;;;;;;5050853;28;20206;-82
2023/12/14 12:35:11;;;;;;;7.23;4.30;;;;;;;;;;5049940;28;20673;-82
2023/12/14 12:37:39;;;;;;;5.27;4.30;;;;;;;;;;5050736;28;20230;-82
2023/12/14 12:40:06;;;;;;;5.80;4.20;;;;;;;;;;5052997;28;20198;-82
2023/12/14 12:42:35;;;;;;;4.30;3.73;;;;;;;;;;5050412;28;20202;-82
2023/12/14 12:45:02;;;;;;;5.10;3.83;;;;;;;;;;5050522;28;20224;-81
2023/12/14 12:47:29;;;;;;;5.47;3.90;;;;;;;;;;5050893;28;20314;-82
2023/12/14 12:49:56;;;;;;;5.70;3.90;;;;;;;;;;5051508;28;20720;-82
2023/12/14 12:52:23;;;;;;;4.97;3.50;;;;;;;;;;5051549;28;20241;-81
2023/12/14 12:54:50;;;;;;;4.63;3.60;;;;;;;;;;5050559;28;20719;-82
2023/12/14 12:57:17;;;;;;;6.73;4.53;;;;;;;;;;5050689;28;20232;-82
2023/12/14 12:59:46;;;;;;;9.30;5.43;;;;;;;;;;5051275;28;20206;-82
2023/12/14 13:02:13;;;;;;;5.13;4.37;;;;;;;;;;5042157;28;20230;-82
2023/12/14 13:04:40;;;;;;;6.37;4.40;;;;;;;;;;5051148;28;20636;-82
2023/12/14 13:07:07;;;;;;;10.27;5.30;;;;;;;;;;5049771;28;20240;-83
2023/12/14 13:09:34;;;;;;;6.03;3.53;;;;;;;;;;5050704;28;20898;-82
2023/12/14 13:12:02;;;;;;;6.23;3.83;;;;;;;;;;5050426;28;20242;-82
2023/12/14 13:14:29;;;;;;;10.03;7.10;;;;;;;;;;5050175;28;20589;-82
2023/12/14 13:16:58;;;;;;;5.20;3.50;;;;;;;;;;5045279;28;20287;-82
2023/12/14 13:19:25;;;;;;;4.93;3.93;;;;;;;;;;5050579;28;20194;-83
2023/12/14 13:21:52;;;;;;;5.50;4.10;;;;;;;;;;5050036;28;20229;-82
2023/12/14 13:24:20;;;;;;;6.77;5.27;;;;;;;;;;5050652;28;20206;-83
2023/12/14 13:26:47;;;;;;;3.70;2.83;;;;;;;;;;5049491;28;20243;-83
2023/12/14 13:29:14;;;;;;;5.30;4.07;;;;;;;;;;5049626;28;20233;-82
2023/12/14 13:31:41;;;;;;;5.77;4.43;;;;;;;;;;5049946;28;20504;-82
2023/12/14 13:34:09;;;;;;;4.23;3.80;;;;;;;;;;5051107;28;20224;-82
2023/12/14 13:36:36;;;;;;;3.23;2.87;;;;;;;;;;5049933;28;20271;-82
2023/12/14 13:39:03;;;;;;;4.33;3.63;;;;;;;;;;5050024;28;20730;-82
2023/12/14 13:41:34;;;;;;;6.40;5.10;;;;;;;;;;5050004;28;20313;-82
2023/12/14 13:44:02;;;;;;;3.23;2.93;;;;;;;;;;5050547;28;20206;-82
2023/12/14 13:46:29;;;;;;;4.60;4.10;;;;;;;;;;5050018;28;20308;-83
2023/12/14 13:48:56;;;;;;;4.63;4.13;;;;;;;;;;5050291;28;20272;-83
2023/12/14 13:51:24;;;;;;;3.40;3.10;;;;;;;;;;5052932;28;20233;-82
2023/12/14 13:53:51;;;;;;;4.20;3.57;;;;;;;;;;5053987;28;20244;-82
2023/12/14 13:56:18;;;;;;;5.77;4.00;;;;;;;;;;5053551;28;20233;-82
2023/12/14 13:58:45;;;;;;;6.20;4.53;;;;;;;;;;5054474;28;20322;-82
2023/12/14 14:01:12;;;;;;;4.80;3.43;;;;;;;;;;5053086;28;20272;-81
2023/12/14 14:03:39;;;;;;;7.00;4.77;;;;;;;;;;5054583;28;20213;-82
2023/12/14 14:06:06;;;;;;;8.50;4.17;;;;;;;;;;5053247;28;20229;-81
2023/12/14 14:08:35;;;;;;;5.30;3.93;;;;;;;;;;5053958;28;20234;-82
2023/12/14 14:11:02;;;;;;;3.43;3.03;;;;;;;;;;5054209;28;20238;-82
2023/12/14 14:13:29;;;;;;;3.90;3.03;;;;;;;;;;5056780;28;20222;-81
2023/12/14 14:15:56;;;;;;;3.20;2.90;;;;;;;;;;5055616;28;20291;-80
2023/12/14 14:18:23;;;;;;;3.50;3.03;;;;;;;;;;5055463;28;20230;-81
2023/12/14 14:20:50;;;;;;;3.10;2.80;;;;;;;;;;5052947;28;20246;-82
2023/12/14 14:23:17;;;;;;;5.20;4.00;;;;;;;;;;5054023;28;20296;-82
2023/12/14 14:25:46;;;;;;;5.83;4.77;;;;;;;;;;5053053;28;20237;-82
2023/12/14 14:28:13;;;;;;;6.10;4.07;;;;;;;;;;5053324;28;20230;-82
2023/12/14 14:30:40;;;;;;;4.80;3.90;;;;;;;;;;5052766;28;20249;-82
2023/12/14 14:33:07;;;;;;;3.57;3.27;;;;;;;;;;5052651;28;20583;-81
2023/12/14 14:35:37;;;;;;;3.47;3.17;;;;;;;;;;5050351;28;20237;-80